createdAt,value
2018-08-24T00:01:18.663Z,5.60
2018-08-24T00:03:47.360Z,8.00
2018-08-24T00:06:16.032Z,8.37
2018-08-24T00:08:44.838Z,6.07
2018-08-24T00:11:13.579Z,6.27
2018-08-24T00:13:42.307Z,5.60
2018-08-24T00:16:11.043Z,6.07
2018-08-24T00:18:39.824Z,6.53
2018-08-24T00:21:08.636Z,5.60
2018-08-24T00:23:37.412Z,6.23
2018-08-24T00:26:06.100Z,9.40
2018-08-24T00:28:34.809Z,5.03
2018-08-24T00:31:03.597Z,4.80
2018-08-24T00:33:32.949Z,6.03
2018-08-24T00:36:01.691Z,6.03
2018-08-24T00:38:30.500Z,6.60
2018-08-24T00:40:59.194Z,5.17
2018-08-24T00:43:27.981Z,5.87
2018-08-24T00:45:56.677Z,5.30
2018-08-24T00:48:25.397Z,5.27
2018-08-24T00:50:54.393Z,5.80
2018-08-24T00:53:24.008Z,7.57
2018-08-24T00:55:52.753Z,6.00
2018-08-24T00:58:21.478Z,5.67
2018-08-24T01:00:50.190Z,4.87
2018-08-24T01:03:18.914Z,5.97
2018-08-24T01:05:47.653Z,6.03
2018-08-24T01:08:17.409Z,4.93
2018-08-24T01:10:46.248Z,5.70
2018-08-24T01:13:15.616Z,7.50
2018-08-24T01:15:54.265Z,6.00
2018-08-24T01:18:55.190Z,5.57
2018-08-24T01:21:24.054Z,5.80
2018-08-24T01:23:52.911Z,5.60
2018-08-24T01:26:24.469Z,8.00
2018-08-24T01:28:54.305Z,6.00
2018-08-24T01:31:23.240Z,11.83
2018-08-24T01:33:52.489Z,5.10
2018-08-24T01:36:21.177Z,5.40
2018-08-24T01:38:49.925Z,5.97
2018-08-24T01:41:18.608Z,5.43
2018-08-24T01:43:47.265Z,7.80
2018-08-24T01:46:16.349Z,5.40
2018-08-24T01:48:45.054Z,5.33
2018-08-24T01:51:13.741Z,5.60
2018-08-24T01:53:42.420Z,6.00
2018-08-24T01:56:12.381Z,5.77
2018-08-24T01:58:41.074Z,5.83
2018-08-24T02:01:09.761Z,5.10
2018-08-24T02:03:38.433Z,5.70
2018-08-24T02:06:08.241Z,7.80
2018-08-24T02:08:49.986Z,7.33
2018-08-24T02:11:24.928Z,6.17
2018-08-24T02:14:01.214Z,5.83
2018-08-24T02:16:33.530Z,5.10
2018-08-24T02:19:11.631Z,5.20
2018-08-24T02:21:46.729Z,5.93
2018-08-24T02:24:15.367Z,7.03
2018-08-24T02:26:44.874Z,9.73
2018-08-24T02:29:13.700Z,6.37
2018-08-24T02:31:47.750Z,6.47
2018-08-24T02:34:16.430Z,8.17
2018-08-24T02:36:45.641Z,5.13
2018-08-24T02:39:16.560Z,6.00
2018-08-24T02:41:46.291Z,8.63
2018-08-24T02:44:16.027Z,6.23
2018-08-24T02:46:45.389Z,6.73
2018-08-24T02:49:15.385Z,6.33
2018-08-24T02:51:45.143Z,7.83
2018-08-24T02:54:14.894Z,8.50
2018-08-24T02:56:43.716Z,9.57
2018-08-24T02:59:12.471Z,7.20
2018-08-24T03:01:41.114Z,6.50
2018-08-24T03:04:09.874Z,12.03
2018-08-24T03:06:38.486Z,6.93
2018-08-24T03:09:09.812Z,9.70
2018-08-24T03:11:38.590Z,7.97
2018-08-24T03:14:07.394Z,9.17
2018-08-24T03:16:36.071Z,11.17
2018-08-24T03:19:04.845Z,8.43
2018-08-24T03:21:33.576Z,10.70
2018-08-24T03:24:02.272Z,12.40
2018-08-24T03:26:31.050Z,10.10
2018-08-24T03:28:59.679Z,7.37
2018-08-24T03:31:28.472Z,7.20
2018-08-24T03:33:57.147Z,8.87
2018-08-24T03:36:25.891Z,10.60
2018-08-24T03:38:54.746Z,11.40
2018-08-24T03:41:23.460Z,9.80
2018-08-24T03:43:52.171Z,10.67
2018-08-24T03:46:21.930Z,11.43
2018-08-24T03:48:50.619Z,10.73
2018-08-24T03:51:19.374Z,11.77
2018-08-24T03:53:48.036Z,9.80
2018-08-24T03:56:16.731Z,8.10
2018-08-24T03:58:45.596Z,8.43
2018-08-24T04:01:14.318Z,11.93
2018-08-24T04:03:42.959Z,10.30
2018-08-24T04:06:11.698Z,10.27
2018-08-24T04:08:40.356Z,9.03
2018-08-24T04:11:09.031Z,9.47
2018-08-24T04:13:37.731Z,13.23
2018-08-24T04:16:06.480Z,13.30
2018-08-24T04:18:36.482Z,10.97
2018-08-24T04:21:05.321Z,12.80
2018-08-24T04:23:34.052Z,13.10
2018-08-24T04:26:03.045Z,11.07
2018-08-24T04:28:31.658Z,10.10
2018-08-24T04:31:00.363Z,10.57
2018-08-24T04:33:30.075Z,17.43
2018-08-24T04:35:59.028Z,13.43
2018-08-24T04:38:27.683Z,11.10
2018-08-24T04:40:56.424Z,8.60
2018-08-24T04:43:25.174Z,10.30
2018-08-24T04:45:53.955Z,11.30
2018-08-24T04:48:22.770Z,9.70
2018-08-24T04:50:51.475Z,9.40
2018-08-24T04:53:21.484Z,10.90
2018-08-24T04:55:50.308Z,9.60
2018-08-24T04:58:19.281Z,11.90
2018-08-24T05:00:48.254Z,11.60
2018-08-24T05:03:18.212Z,13.60
2018-08-24T05:05:46.993Z,11.90
2018-08-24T05:08:15.772Z,15.60
2018-08-24T05:10:44.468Z,15.43
2018-08-24T05:13:13.365Z,13.27
2018-08-24T05:15:42.076Z,8.23
2018-08-24T05:18:10.883Z,10.07
2018-08-24T05:20:39.596Z,15.40
2018-08-24T05:23:08.378Z,10.60
2018-08-24T05:25:37.153Z,8.60
2018-08-24T05:28:06.210Z,10.23
2018-08-24T05:30:34.884Z,11.07
2018-08-24T05:33:03.763Z,14.17
2018-08-24T05:35:32.439Z,10.70
2018-08-24T05:38:01.232Z,9.10
2018-08-24T05:40:30.992Z,12.73
2018-08-24T05:43:00.331Z,9.13
2018-08-24T05:45:32.950Z,6.93
2018-08-24T05:48:01.769Z,8.57
2018-08-24T05:50:30.655Z,12.30
2018-08-24T05:52:59.436Z,11.63
2018-08-24T05:55:28.187Z,10.23
2018-08-24T05:57:56.882Z,8.33
2018-08-24T06:00:30.922Z,9.20
2018-08-24T06:02:59.659Z,9.60
2018-08-24T06:05:28.388Z,10.87
2018-08-24T06:07:57.175Z,10.60
2018-08-24T06:10:26.053Z,10.30
2018-08-24T06:12:54.780Z,10.30
2018-08-24T06:15:23.475Z,10.43
2018-08-24T06:17:53.416Z,7.53
2018-08-24T06:20:22.939Z,9.17
2018-08-24T06:22:51.808Z,6.53
2018-08-24T06:25:20.609Z,7.30
2018-08-24T06:27:49.327Z,6.80
2018-08-24T06:30:18.011Z,8.27
2018-08-24T06:32:46.843Z,8.10
2018-08-24T06:35:15.791Z,9.77
2018-08-24T06:37:44.599Z,6.50
2018-08-24T06:40:13.411Z,9.33
2018-08-24T06:42:42.065Z,6.07
2018-08-24T06:45:10.775Z,11.10
2018-08-24T06:47:39.591Z,7.80
2018-08-24T06:50:08.523Z,8.60
2018-08-24T06:52:37.235Z,6.60
2018-08-24T06:55:06.714Z,6.40
2018-08-24T06:57:35.678Z,7.97
2018-08-24T07:00:04.675Z,9.90
2018-08-24T07:02:33.355Z,5.03
2018-08-24T07:05:02.347Z,6.50
2018-08-24T07:07:31.132Z,6.67
2018-08-24T07:09:59.870Z,9.07
2018-08-24T07:12:28.653Z,7.67
2018-08-24T07:14:57.482Z,9.10
2018-08-24T07:17:31.308Z,6.20
2018-08-24T07:20:00.034Z,7.07
2018-08-24T07:22:28.830Z,8.33
2018-08-24T07:24:57.720Z,11.80
2018-08-24T07:27:26.351Z,7.53
2018-08-24T07:29:55.095Z,6.87
2018-08-24T07:32:23.830Z,9.50
2018-08-24T07:34:52.648Z,9.33
2018-08-24T07:37:21.638Z,6.00
2018-08-24T07:39:50.380Z,5.77
2018-08-24T07:42:19.131Z,11.30
2018-08-24T07:44:53.480Z,5.77
2018-08-24T07:47:23.003Z,6.27
2018-08-24T07:49:52.205Z,7.30
2018-08-24T07:52:21.054Z,6.90
2018-08-24T07:54:49.812Z,8.73
2018-08-24T07:57:18.540Z,6.80
2018-08-24T07:59:47.383Z,7.47
2018-08-24T08:02:16.083Z,8.07
2018-08-24T08:04:44.788Z,7.30
2018-08-24T08:07:13.739Z,6.67
2018-08-24T08:09:42.454Z,5.40
2018-08-24T08:12:11.193Z,6.77
2018-08-24T08:14:44.184Z,6.80
2018-08-24T08:17:14.378Z,8.43
2018-08-24T08:19:44.126Z,8.20
2018-08-24T08:22:12.857Z,6.83
2018-08-24T08:24:41.596Z,8.40
2018-08-24T08:27:11.512Z,10.60
2018-08-24T08:29:45.616Z,5.63
2018-08-24T08:32:14.324Z,13.57
2018-08-24T08:34:49.207Z,9.03
2018-08-24T08:37:17.960Z,8.00
2018-08-24T08:39:46.715Z,6.10
2018-08-24T08:42:15.435Z,6.80
2018-08-24T08:44:44.156Z,8.40
2018-08-24T08:47:12.904Z,9.87
2018-08-24T08:49:41.667Z,11.80
2018-08-24T08:52:11.172Z,6.10
2018-08-24T08:54:39.963Z,7.77
2018-08-24T08:57:08.771Z,9.17
2018-08-24T08:59:37.512Z,7.30
2018-08-24T09:02:08.683Z,10.83
2018-08-24T09:04:37.819Z,7.23
2018-08-24T09:07:06.795Z,8.20
2018-08-24T09:09:37.082Z,7.90
2018-08-24T09:12:06.388Z,8.87
2018-08-24T09:14:35.354Z,9.20
2018-08-24T09:17:09.173Z,6.57
2018-08-24T09:19:43.259Z,8.50
2018-08-24T09:22:17.407Z,8.03
2018-08-24T09:24:51.424Z,8.60
2018-08-24T09:27:25.255Z,6.93
2018-08-24T09:29:55.367Z,6.07
2018-08-24T09:32:24.177Z,9.07
2018-08-24T09:34:52.954Z,11.63
2018-08-24T09:37:29.263Z,6.47
2018-08-24T09:39:58.013Z,9.07
2018-08-24T09:42:26.768Z,5.10
2018-08-24T09:44:56.424Z,8.77
2018-08-24T09:47:30.588Z,7.27
2018-08-24T09:50:04.968Z,6.40
2018-08-24T09:52:33.781Z,8.60
2018-08-24T09:55:02.449Z,8.47
2018-08-24T09:57:31.316Z,12.73
2018-08-24T10:00:00.066Z,9.40
2018-08-24T10:02:34.358Z,10.17
2018-08-24T10:05:08.435Z,10.00
2018-08-24T10:07:42.387Z,10.80
2018-08-24T10:10:11.351Z,11.23
2018-08-24T10:12:40.060Z,11.07
2018-08-24T10:15:09.960Z,12.97
2018-08-24T10:17:38.717Z,11.67
2018-08-24T10:20:07.717Z,11.43
2018-08-24T10:22:36.588Z,11.60
2018-08-24T10:25:05.639Z,13.10
2018-08-24T10:27:34.561Z,14.20
2018-08-24T10:30:03.540Z,10.03
2018-08-24T10:32:33.409Z,11.70
2018-08-24T10:35:02.318Z,12.63
2018-08-24T10:37:31.026Z,14.63
2018-08-24T10:39:59.754Z,14.83
2018-08-24T10:42:28.545Z,11.63
2018-08-24T10:44:57.194Z,17.67
2018-08-24T10:47:25.903Z,12.30
2018-08-24T10:49:54.566Z,13.73
2018-08-24T10:52:23.419Z,13.47
2018-08-24T10:54:52.068Z,13.27
2018-08-24T10:57:20.791Z,14.80
2018-08-24T10:59:49.428Z,12.03
2018-08-24T11:02:18.084Z,12.20
2018-08-24T11:04:46.795Z,12.43
2018-08-24T11:07:15.600Z,19.37
2018-08-24T11:09:44.219Z,13.77
2018-08-24T11:12:12.898Z,19.30
2018-08-24T11:14:41.642Z,13.60
2018-08-24T11:17:11.339Z,10.70
2018-08-24T11:19:40.028Z,12.40
2018-08-24T11:22:17.636Z,13.80
2018-08-24T11:24:46.370Z,14.80
2018-08-24T11:27:15.059Z,13.60
2018-08-24T11:29:44.572Z,16.03
2018-08-24T11:32:13.202Z,15.83
2018-08-24T11:34:41.827Z,15.07
2018-08-24T11:37:10.479Z,12.20
2018-08-24T11:39:39.095Z,13.77
2018-08-24T11:42:07.764Z,12.43
2018-08-24T11:44:36.537Z,13.03
2018-08-24T11:47:05.320Z,14.53
2018-08-24T11:49:33.957Z,12.40
2018-08-24T11:52:02.835Z,12.23
2018-08-24T11:54:31.634Z,12.20
2018-08-24T11:57:00.176Z,15.70
2018-08-24T11:59:28.853Z,10.47
2018-08-24T12:01:57.529Z,11.00
2018-08-24T12:04:26.148Z,12.30
2018-08-24T12:06:54.971Z,17.40
2018-08-24T12:09:24.361Z,11.60
2018-08-24T12:11:53.017Z,13.67
2018-08-24T12:14:21.768Z,12.50
2018-08-24T12:16:50.450Z,13.53
2018-08-24T12:19:19.156Z,10.80
2018-08-24T12:21:47.807Z,11.43
2018-08-24T12:24:16.471Z,11.50
2018-08-24T12:26:45.202Z,10.23
2018-08-24T12:29:13.807Z,12.50
2018-08-24T12:31:42.547Z,11.70
2018-08-24T12:34:11.291Z,12.17
2018-08-24T12:36:39.880Z,11.37
2018-08-24T12:39:10.054Z,11.87
2018-08-24T12:41:38.865Z,11.43
2018-08-24T12:44:07.828Z,13.23
2018-08-24T12:46:36.567Z,13.70
2018-08-24T12:49:05.398Z,10.30
2018-08-24T12:51:34.145Z,13.73
2018-08-24T12:54:02.919Z,12.50
2018-08-24T12:56:31.591Z,11.67
2018-08-24T12:59:00.440Z,13.40
2018-08-24T13:01:30.083Z,11.43
2018-08-24T13:03:58.687Z,11.03
2018-08-24T13:06:27.377Z,10.37
2018-08-24T13:08:57.078Z,11.90
2018-08-24T13:11:25.873Z,11.43
2018-08-24T13:13:54.535Z,12.93
2018-08-24T13:16:23.221Z,13.67
2018-08-24T13:18:51.951Z,14.33
2018-08-24T13:21:20.859Z,16.67
2018-08-24T13:23:49.472Z,9.60
2018-08-24T13:26:18.091Z,15.67
2018-08-24T13:28:46.780Z,13.20
2018-08-24T13:31:16.229Z,11.43
2018-08-24T13:33:44.857Z,20.40
2018-08-24T13:36:13.512Z,11.60
2018-08-24T13:38:42.168Z,11.60
2018-08-24T13:41:10.983Z,13.80
2018-08-24T13:43:39.691Z,14.37
2018-08-24T13:46:08.435Z,10.27
2018-08-24T13:48:37.054Z,16.40
2018-08-24T13:51:05.665Z,12.97
2018-08-24T13:53:34.464Z,11.47
2018-08-24T13:56:03.142Z,10.00
2018-08-24T13:58:31.805Z,10.17
2018-08-24T14:01:00.527Z,12.40
2018-08-24T14:03:29.212Z,10.57
2018-08-24T14:05:57.863Z,11.20
2018-08-24T14:08:26.538Z,11.60
2018-08-24T14:10:55.196Z,11.70
2018-08-24T14:13:23.937Z,10.73
2018-08-24T14:15:52.679Z,12.43
2018-08-24T14:18:21.359Z,10.30
2018-08-24T14:20:50.204Z,10.43
2018-08-24T14:23:18.868Z,9.90
2018-08-24T14:25:47.497Z,8.83
2018-08-24T14:28:16.317Z,9.30
2018-08-24T14:30:45.042Z,12.13
2018-08-24T14:33:13.715Z,9.80
2018-08-24T14:35:42.369Z,11.07
2018-08-24T14:38:11.127Z,10.17
2018-08-24T14:40:39.860Z,11.70
2018-08-24T14:43:08.528Z,11.80
2018-08-24T14:45:37.249Z,14.70
2018-08-24T14:48:05.958Z,14.10
2018-08-24T14:50:34.697Z,11.30
2018-08-24T14:53:03.730Z,12.30
2018-08-24T14:55:32.414Z,17.60
2018-08-24T14:58:01.113Z,21.67
2018-08-24T15:00:29.844Z,28.37
2018-08-24T15:02:58.518Z,29.23
2018-08-24T15:05:27.183Z,29.67
2018-08-24T15:07:55.842Z,28.10
2018-08-24T15:10:24.535Z,29.17
2018-08-24T15:12:53.204Z,26.03
2018-08-24T15:15:21.813Z,21.33
2018-08-24T15:17:50.516Z,24.30
2018-08-24T15:20:19.237Z,20.97
2018-08-24T15:22:47.891Z,20.47
2018-08-24T15:25:16.582Z,25.10
2018-08-24T15:27:45.229Z,22.87
2018-08-24T15:30:13.910Z,20.37
2018-08-24T15:32:49.651Z,19.47
2018-08-24T15:35:18.412Z,18.63
2018-08-24T15:37:47.035Z,17.70
2018-08-24T15:40:15.669Z,17.73
2018-08-24T15:42:44.341Z,21.00
2018-08-24T15:45:12.975Z,17.93
2018-08-24T15:47:41.595Z,21.03
2018-08-24T15:50:10.246Z,19.50
2018-08-24T15:52:39.088Z,25.00
2018-08-24T15:55:07.889Z,20.13
2018-08-24T15:57:36.629Z,12.63
2018-08-24T16:00:06.518Z,12.87
2018-08-24T16:02:35.197Z,12.77
2018-08-24T16:05:03.998Z,12.67
2018-08-24T16:07:37.090Z,12.40
2018-08-24T16:10:06.332Z,12.70
2018-08-24T16:12:35.177Z,16.57
2018-08-24T16:15:04.903Z,10.47
2018-08-24T16:17:33.617Z,11.17
2018-08-24T16:20:02.278Z,11.13
2018-08-24T16:22:30.903Z,10.13
2018-08-24T16:24:59.552Z,12.40
2018-08-24T16:27:28.283Z,10.50
2018-08-24T16:29:57.689Z,14.03
2018-08-24T16:32:26.394Z,10.60
2018-08-24T16:34:55.307Z,10.90
2018-08-24T16:37:24.070Z,11.90
2018-08-24T16:39:52.732Z,10.37
2018-08-24T16:42:24.773Z,16.03
2018-08-24T16:44:53.510Z,13.13
2018-08-24T16:47:22.186Z,14.47
2018-08-24T16:49:50.853Z,11.70
2018-08-24T16:52:19.494Z,13.27
2018-08-24T16:54:48.376Z,13.20
2018-08-24T16:57:17.115Z,14.43
2018-08-24T16:59:46.713Z,15.10
2018-08-24T17:02:15.412Z,12.47
2018-08-24T17:04:44.094Z,12.17
2018-08-24T17:07:12.782Z,18.47
2018-08-24T17:09:41.440Z,18.00
2018-08-24T17:12:10.067Z,9.20
2018-08-24T17:14:38.859Z,10.73
2018-08-24T17:17:07.575Z,12.10
2018-08-24T17:19:36.205Z,13.00
2018-08-24T17:22:04.936Z,12.50
2018-08-24T17:24:33.595Z,13.23
2018-08-24T17:27:02.228Z,12.03
2018-08-24T17:29:30.887Z,11.90
2018-08-24T17:31:59.568Z,11.40
2018-08-24T17:34:29.021Z,14.00
2018-08-24T17:36:57.739Z,8.43
2018-08-24T17:39:27.236Z,12.10
2018-08-24T17:41:56.006Z,9.57
2018-08-24T17:44:24.809Z,11.20
2018-08-24T17:46:53.690Z,10.07
2018-08-24T17:49:22.440Z,8.83
2018-08-24T17:51:51.095Z,8.00
2018-08-24T17:54:19.824Z,10.10
2018-08-24T17:56:48.779Z,10.33
2018-08-24T17:59:17.435Z,8.23
2018-08-24T18:01:47.088Z,11.10
2018-08-24T18:04:15.785Z,14.53
2018-08-24T18:06:44.478Z,12.43
2018-08-24T18:09:13.176Z,11.70
2018-08-24T18:11:42.117Z,11.70
2018-08-24T18:14:10.732Z,8.67
2018-08-24T18:16:39.393Z,10.47
2018-08-24T18:19:08.230Z,10.47
2018-08-24T18:21:36.920Z,15.67
2018-08-24T18:24:05.681Z,13.70
2018-08-24T18:26:34.418Z,11.80
2018-08-24T18:29:03.055Z,14.33
2018-08-24T18:31:31.648Z,18.90
2018-08-24T18:34:00.527Z,14.77
2018-08-24T18:36:29.227Z,13.23
2018-08-24T18:38:58.124Z,16.17
2018-08-24T18:41:26.953Z,15.00
2018-08-24T18:43:55.740Z,14.00
2018-08-24T18:46:24.387Z,14.73
2018-08-24T18:48:53.173Z,16.47
2018-08-24T18:51:21.840Z,16.10
2018-08-24T18:53:50.487Z,23.53
2018-08-24T18:56:19.173Z,19.23
2018-08-24T18:58:47.917Z,17.73
2018-08-24T19:01:16.852Z,17.20
2018-08-24T19:03:45.652Z,21.53
2018-08-24T19:06:14.313Z,20.20
2018-08-24T19:08:43.036Z,20.23
2018-08-24T19:11:16.833Z,18.17
2018-08-24T19:13:45.633Z,17.33
2018-08-24T19:16:14.432Z,20.30
2018-08-24T19:18:48.186Z,22.70
2018-08-24T19:21:22.073Z,18.13
2018-08-24T19:23:50.760Z,16.27
2018-08-24T19:26:19.673Z,20.47
2018-08-24T19:28:53.803Z,17.30
2018-08-24T19:31:22.617Z,16.50
2018-08-24T19:33:51.287Z,17.83
2018-08-24T19:36:19.940Z,19.20
2018-08-24T19:38:49.689Z,18.27
2018-08-24T19:41:23.641Z,20.87
2018-08-24T19:43:52.393Z,24.30
2018-08-24T19:46:21.028Z,17.87
2018-08-24T19:48:55.134Z,17.23
2018-08-24T19:51:23.876Z,18.73
2018-08-24T19:53:52.643Z,20.60
2018-08-24T19:56:21.435Z,18.47
2018-08-24T19:58:56.277Z,20.10
2018-08-24T20:01:24.886Z,16.57
2018-08-24T20:03:53.572Z,16.33
2018-08-24T20:06:27.666Z,19.07
2018-08-24T20:09:01.582Z,18.07
2018-08-24T20:11:30.255Z,21.03
2018-08-24T20:13:58.974Z,15.80
2018-08-24T20:16:32.830Z,18.87
2018-08-24T20:19:01.446Z,19.23
2018-08-24T20:21:30.083Z,21.73
2018-08-24T20:23:58.874Z,19.27
2018-08-24T20:26:27.585Z,19.27
2018-08-24T20:28:56.283Z,21.20
2018-08-24T20:31:24.895Z,19.50
2018-08-24T20:33:53.523Z,19.97
2018-08-24T20:36:22.208Z,19.60
2018-08-24T20:38:50.893Z,22.37
2018-08-24T20:41:19.549Z,20.27
2018-08-24T20:43:48.179Z,25.03
2018-08-24T20:46:17.019Z,22.87
2018-08-24T20:48:45.774Z,20.47
2018-08-24T20:51:14.420Z,22.90
2018-08-24T20:53:42.987Z,24.20
2018-08-24T20:56:11.684Z,23.37
2018-08-24T20:58:40.282Z,21.30
2018-08-24T21:01:08.935Z,23.27
2018-08-24T21:03:37.593Z,23.40
2018-08-24T21:06:06.259Z,27.53
2018-08-24T21:08:34.848Z,23.50
2018-08-24T21:11:03.583Z,22.27
2018-08-24T21:13:32.198Z,24.97
2018-08-24T21:16:00.890Z,23.23
2018-08-24T21:18:30.914Z,22.73
2018-08-24T21:21:01.209Z,24.43
2018-08-24T21:23:30.675Z,20.07
2018-08-24T21:26:04.288Z,19.57
2018-08-24T21:28:33.024Z,21.90
2018-08-24T21:31:01.715Z,24.23
2018-08-24T21:33:30.359Z,23.17
2018-08-24T21:35:58.977Z,24.30
2018-08-24T21:38:27.911Z,27.13
2018-08-24T21:40:56.568Z,21.47
2018-08-24T21:43:25.247Z,22.47
2018-08-24T21:45:53.876Z,23.77
2018-08-24T21:48:22.522Z,22.03
2018-08-24T21:50:51.175Z,22.63
2018-08-24T21:53:19.900Z,26.00
2018-08-24T21:55:48.499Z,21.90
2018-08-24T21:58:17.361Z,20.60
2018-08-24T22:00:46.236Z,26.27
2018-08-24T22:03:14.882Z,22.20
2018-08-24T22:05:43.546Z,31.27
2018-08-24T22:08:12.356Z,25.43
2018-08-24T22:10:41.084Z,25.83
2018-08-24T22:13:09.786Z,21.97
2018-08-24T22:15:38.477Z,20.90
2018-08-24T22:18:07.127Z,25.43
2018-08-24T22:20:35.710Z,23.43
2018-08-24T22:23:04.382Z,22.57
2018-08-24T22:25:32.970Z,24.43
2018-08-24T22:28:01.604Z,24.40
2018-08-24T22:30:30.336Z,26.20
2018-08-24T22:32:58.971Z,24.57
2018-08-24T22:35:27.608Z,31.23
2018-08-24T22:37:56.252Z,22.47
2018-08-24T22:40:24.882Z,25.60
2018-08-24T22:42:53.591Z,27.43
2018-08-24T22:45:23.622Z,26.90
2018-08-24T22:47:53.086Z,25.03
2018-08-24T22:50:22.853Z,22.20
2018-08-24T22:52:51.486Z,30.10
2018-08-24T22:55:20.076Z,22.47
2018-08-24T22:57:48.700Z,26.00
2018-08-24T23:00:17.416Z,25.33
2018-08-24T23:02:46.070Z,25.93
2018-08-24T23:05:14.710Z,24.00
2018-08-24T23:07:43.389Z,24.57
2018-08-24T23:10:12.007Z,26.13
2018-08-24T23:12:40.657Z,27.40
2018-08-24T23:15:09.272Z,25.87
2018-08-24T23:17:37.979Z,25.80
2018-08-24T23:20:06.621Z,29.70
2018-08-24T23:22:35.219Z,22.63
2018-08-24T23:25:03.844Z,25.13
2018-08-24T23:27:32.784Z,22.70
2018-08-24T23:30:01.386Z,24.40
2018-08-24T23:32:30.093Z,21.93
2018-08-24T23:34:59.740Z,23.63
2018-08-24T23:37:28.361Z,28.03
2018-08-24T23:39:57.711Z,25.03
2018-08-24T23:42:26.428Z,26.10
2018-08-24T23:44:55.073Z,24.13
2018-08-24T23:47:23.755Z,22.27
2018-08-24T23:49:52.479Z,21.63
2018-08-24T23:52:21.311Z,27.50
2018-08-24T23:54:49.918Z,21.33
2018-08-24T23:57:18.535Z,21.93
2018-08-24T23:59:47.193Z,24.37
